Flight Track Log - Related Links

Times and Time Zones

All times are in EDT time to prevent confusion due to time zone crossing. See the KAP927 flight status page for this flight to view local times or setup timezone preferences in your user account.

Time Position Orientation Groundspeed Altitude Reporting Facility
EDT Latitude Longitude Course Direction KTS MPH feet Rate Location/Type
Fri 06:31:12 PM 42.7714 -73.8092 360° North 117 135 1,000  Level Boston Center
Fri 06:31:12 PM 42.7714 -73.8092 342° North 117 135 1,000 600 Level Boston Center
Fri 06:32:12 PM 42.8047 -73.8239 342° North 118 136 1,600 600 Climbing Boston Center
Fri 06:32:12 PM 42.8047 -73.8239 342° North 118 136 1,600 689 Level Boston Center
Fri 06:33:13 PM 42.8336 -73.8444 332° Northwest 117 135 2,300 689 Climbing Boston Center
Fri 06:33:13 PM 42.8336 -73.8444 332° Northwest 117 135 2,300 600 Level Boston Center
Fri 06:34:13 PM 42.8603 -73.8706 324° Northwest 120 138 2,900 600 Climbing Boston Center
Fri 06:34:13 PM 42.8603 -73.8706 324° Northwest 120 138 2,900 590 Level Boston Center
Fri 06:35:14 PM 42.8914 -73.8911 334° Northwest 123 142 3,500 590 Climbing Boston Center
Fri 06:35:14 PM 42.8914 -73.8911 334° Northwest 123 142 3,500 590 Level Boston Center
Fri 06:36:15 PM 42.9181 -73.9172 324° Northwest 123 142 4,100 590 Climbing Boston Center
Fri 06:36:15 PM 42.9181 -73.9172 324° Northwest 123 142 4,100 600 Level Boston Center
Fri 06:37:15 PM 42.9469 -73.9433 327° Northwest 124 143 4,700 600 Climbing Boston Center
Fri 06:37:15 PM 42.9469 -73.9433 327° Northwest 124 143 4,700 600 Level Boston Center
Fri 06:38:15 PM 42.9800 -73.9697 330° Northwest 125 144 5,300 600 Climbing Boston Center
Fri 06:38:15 PM 42.9800 -73.9697 330° Northwest 125 144 5,300 469 Level Boston Center
Fri 06:39:19 PM 43.0128 -73.9961 330° Northwest 129 148 5,800 469 Climbing Boston Center
Fri 06:39:19 PM 43.0128 -73.9961 330° Northwest 129 148 5,800  Level Boston Center
Fri 06:39:22 PM 43.0131 -73.9933 82° East 132 152 5,800  Level Boston Center
Fri 06:39:22 PM 43.0131 -73.9933 82° East 132 152 5,800 526 Level Boston Center
Fri 06:40:19 PM 43.0439 -74.0225 325° Northwest 134 154 6,300 526 Climbing Boston Center
Fri 06:40:19 PM 43.0439 -74.0225 325° Northwest 134 154 6,300 197 Level Boston Center
Fri 06:41:20 PM 43.0811 -74.0461 335° Northwest 140 161 6,500 197 Climbing Boston Center
Fri 06:41:20 PM 43.0811 -74.0461 335° Northwest 140 161 6,500 -98 Level Boston Center
Fri 06:42:21 PM 43.1097 -74.0783 321° Northwest 158 182 6,400 -98 Descending Boston Center
Fri 06:42:21 PM 43.1097 -74.0783 321° Northwest 158 182 6,400 102 Level Boston Center
Fri 06:43:20 PM 43.1489 -74.1106 329° Northwest 164 189 6,500 102 Climbing Boston Center
Fri 06:43:20 PM 43.1489 -74.1106 329° Northwest 164 189 6,500  Level Boston Center
Fri 06:44:19 PM 43.1858 -74.1428 328° Northwest 176 203 6,500  Level Boston Center
Fri 06:44:19 PM 43.1858 -74.1428 328° Northwest 176 203 6,500 -98 Level Boston Center
Fri 06:45:20 PM 43.2250 -74.1753 329° Northwest 176 203 6,400 -98 Descending Boston Center
Fri 06:45:20 PM 43.2250 -74.1753 329° Northwest 176 203 6,400  Level Boston Center
Fri 06:46:21 PM 43.2619 -74.2078 327° Northwest 160 184 6,400  Level Boston Center
Fri 06:46:21 PM 43.2619 -74.2078 327° Northwest 160 184 6,400  Level Boston Center
Fri 06:47:22 PM 43.2992 -74.2403 328° Northwest 160 184 6,400  Level Boston Center
Fri 06:47:22 PM 43.2992 -74.2403 328° Northwest 160 184 6,400  Level Boston Center
Fri 06:48:19 PM 43.3339 -74.2697 328° Northwest 155 178 6,400  Level Boston Center
Fri 06:48:19 PM 43.3339 -74.2697 328° Northwest 155 178 6,400  Level Boston Center
Fri 06:49:21 PM 43.3689 -74.2967 331° Northwest 150 173 6,400  Level Boston Center
Fri 06:49:21 PM 43.3689 -74.2967 331° Northwest 150 173 6,400 98 Level Boston Center
Fri 06:50:22 PM 43.4019 -74.3289 325° Northwest 150 173 6,500 98 Climbing Boston Center
Fri 06:50:22 PM 43.4019 -74.3289 325° Northwest 150 173 6,500 -105 Level Boston Center
Fri 06:51:19 PM 43.4367 -74.3586 328° Northwest 150 173 6,400 -105 Descending Boston Center
Fri 06:51:19 PM 43.4367 -74.3586 328° Northwest 150 173 6,400  Level Boston Center
Fri 06:52:20 PM 43.4717 -74.3883 328° Northwest 150 173 6,400  Level Boston Center
Fri 06:52:20 PM 43.4717 -74.3883 328° Northwest 150 173 6,400 100 Level Boston Center
Fri 06:53:20 PM 43.5044 -74.4181 327° Northwest 150 173 6,500 100 Climbing Boston Center
Fri 06:53:20 PM 43.5044 -74.4181 327° Northwest 150 173 6,500 -98 Level Boston Center
Fri 06:54:21 PM 43.5414 -74.4481 330° Northwest 150 173 6,400 -98 Descending Boston Center
Fri 06:54:21 PM 43.5414 -74.4481 330° Northwest 150 173 6,400  Level Boston Center
Fri 06:55:21 PM 43.5722 -74.4778 325° Northwest 150 173 6,400  Level Boston Center
Fri 06:55:21 PM 43.5722 -74.4778 325° Northwest 150 173 6,400  Level Boston Center
Fri 06:56:22 PM 43.6072 -74.5047 331° Northwest 150 173 6,400  Level Boston Center
Fri 06:56:22 PM 43.6072 -74.5047 331° Northwest 150 173 6,400 105 Level Boston Center
Fri 06:57:19 PM 43.6400 -74.5344 327° Northwest 150 173 6,500 105 Climbing Boston Center
Fri 06:57:19 PM 43.6400 -74.5344 327° Northwest 150 173 6,500 -98 Level Boston Center
Fri 06:58:20 PM 43.6728 -74.5614 329° Northwest 150 173 6,400 -98 Descending Boston Center
Fri 06:58:20 PM 43.6728 -74.5614 329° Northwest 150 173 6,400 100 Level Boston Center
Fri 06:59:20 PM 43.7056 -74.5914 327° Northwest 150 173 6,500 100 Climbing Boston Center
Fri 06:59:20 PM 43.7056 -74.5914 327° Northwest 150 173 6,500  Level Boston Center
Fri 06:59:20 PM 43.7056 -74.5914 327° Northwest 150 173 6,500  Level Boston Center
Fri 06:59:20 PM 43.7056 -74.5914 327° Northwest 150 173 6,500  Level Boston Center
Fri 06:59:20 PM 43.7056 -74.5914 327° Northwest 150 173 6,500  Level Boston Center
Fri 07:00:21 PM 43.7383 -74.6183 329° Northwest 150 173 6,500  Level Boston Center
Fri 07:01:21 PM 43.7711 -74.6483 327° Northwest 150 173 6,500  Level Boston Center
Fri 07:02:22 PM 43.8039 -74.6783 327° Northwest 145 167 6,500 -50 Level Boston Center
Fri 07:03:21 PM 43.8347 -74.7053 328° Northwest 145 167 6,400  Descending Boston Center
Fri 07:04:21 PM 43.8697 -74.7325 331° Northwest 145 167 6,500 50 Climbing Boston Center
Fri 07:05:22 PM 43.9003 -74.7625 325° Northwest 145 167 6,500  Level Boston Center
Fri 07:06:22 PM 43.9331 -74.7897 329° Northwest 145 167 6,500  Level Boston Center
Fri 07:07:19 PM 43.9658 -74.8200 326° Northwest 145 167 6,500  Level Boston Center
Fri 07:08:20 PM 43.9986 -74.8500 327° Northwest 145 167 6,500  Level Boston Center
Fri 07:09:21 PM 44.0314 -74.8772 329° Northwest 145 167 6,500  Level Boston Center
Fri 07:10:21 PM 44.0642 -74.9047 329° Northwest 145 167 6,500 -50 Level Boston Center
Fri 07:11:21 PM 44.0989 -74.9350 328° Northwest 140 161 6,400  Descending Boston Center
Fri 07:12:22 PM 44.1294 -74.9653 325° Northwest 140 161 6,500 50 Climbing Boston Center
Fri 07:13:20 PM 44.1622 -74.9928 329° Northwest 140 161 6,500 -50 Level Boston Center
Fri 07:14:21 PM 44.1969 -75.0203 330° Northwest 140 161 6,400 -248 Descending Boston Center
Fri 07:15:21 PM 44.2336 -75.0567 325° Northwest 145 167 6,000 -347 Descending Boston Center
Fri 07:16:22 PM 44.2706 -75.0844 332° Northwest 145 167 5,700 -252 Descending Boston Center
Fri 07:17:20 PM 44.3053 -75.1119 330° Northwest 150 173 5,500 -303 Descending Boston Center
Fri 07:18:21 PM 44.3464 -75.1400 334° Northwest 150 173 5,100 -393 Descending Boston Center
Fri 07:19:22 PM 44.3853 -75.1736 328° Northwest 150 173 4,700 -403 Descending Boston Center
Fri 07:20:20 PM 44.4283 -75.1961 340° North 156 180 4,300 -353 Descending Boston Center
Fri 07:21:21 PM 44.4672 -75.2300 328° Northwest 156 180 4,000 -393 Descending Boston Center
Fri 07:22:22 PM 44.5103 -75.2581 335° Northwest 156 180 3,500 -496 Descending Boston Center
Fri 07:23:22 PM 44.5531 -75.2950 328° Northwest 161 185 3,000 -500 Descending Boston Center
Fri 07:25:00 PM 44.5902 -75.3659 306° West  Level FlightAware Approximate
Fri 07:32:00 PM 44.6667 -75.4500 325° Northwest  Level FlightAware Approximate
Fri 07:33:00 PM 44.6452 -75.4053 325° Northwest  Level Estimated
Fri 07:34:00 PM 44.6667 -75.4500 325° Northwest  Level FlightAware Approximate
Fri 07:35:00 PM 44.6452 -75.4053 325° Northwest  Level Estimated
Fri 07:36:00 PM 44.6667 -75.4500 325° Northwest  Level FlightAware Approximate
Fri 07:37:00 PM 44.6452 -75.4053 325° Northwest  Level Estimated
Fri 07:38:00 PM 44.6667 -75.4500 325° Northwest  Level FlightAware Approximate
Fri 07:39:00 PM 44.6452 -75.4053 325° Northwest  Level Estimated
Fri 07:40:00 PM 44.6667 -75.4500 325° Northwest  Level FlightAware Approximate
Fri 07:41:00 PM 44.6452 -75.4053 325° Northwest  Level Estimated
Fri 07:42:00 PM 44.6667 -75.4500 325° Northwest  Level FlightAware Approximate
Fri 07:43:00 PM 44.6452 -75.4053 325° Northwest  Level Estimated
Fri 07:44:00 PM 44.6667 -75.4500 325° Northwest  Level FlightAware Approximate
Fri 07:45:00 PM 44.6452 -75.4053 325° Northwest  Level Estimated
Fri 07:46:00 PM 44.6667 -75.4500 325° Northwest  Level FlightAware Approximate

Login

Don't have an account? Register now (free) for customized features, flight alerts, and more!